createdAt,value
2019-02-14T00:00:13.079Z,7.27
2019-02-14T00:02:41.544Z,7.37
2019-02-14T00:05:16.161Z,6.80
2019-02-14T00:07:40.470Z,7.80
2019-02-14T00:10:10.045Z,6.70
2019-02-14T00:12:38.535Z,7.03
2019-02-14T00:15:12.576Z,7.13
2019-02-14T00:17:41.110Z,7.63
2019-02-14T00:20:10.324Z,6.97
2019-02-14T00:22:38.816Z,7.43
2019-02-14T00:25:07.590Z,6.63
2019-02-14T00:27:36.413Z,7.27
2019-02-14T00:30:07.159Z,6.70
2019-02-14T00:32:35.627Z,6.53
2019-02-14T00:35:05.052Z,6.67
2019-02-14T00:37:33.583Z,6.43
2019-02-14T00:40:02.126Z,6.67
2019-02-14T00:42:30.682Z,6.47
2019-02-14T00:44:59.243Z,6.33
2019-02-14T00:47:27.809Z,6.77
2019-02-14T00:49:56.359Z,7.00
2019-02-14T00:52:24.923Z,7.13
2019-02-14T00:54:53.563Z,6.93
2019-02-14T00:57:22.035Z,7.27
2019-02-14T00:59:50.503Z,7.40
2019-02-14T01:02:18.998Z,7.43
2019-02-14T01:04:47.463Z,6.77
2019-02-14T01:07:15.955Z,6.80
2019-02-14T01:09:44.428Z,6.90
2019-02-14T01:12:13.832Z,7.23
2019-02-14T01:14:42.398Z,7.57
2019-02-14T01:17:10.892Z,7.33
2019-02-14T01:19:39.355Z,7.27
2019-02-14T01:22:07.919Z,7.13
2019-02-14T01:24:36.418Z,6.77
2019-02-14T01:27:04.910Z,7.47
2019-02-14T01:29:33.387Z,7.13
2019-02-14T01:32:01.927Z,7.17
2019-02-14T01:34:30.759Z,7.23
2019-02-14T01:36:59.323Z,7.53
2019-02-14T01:39:28.027Z,7.60
2019-02-14T01:41:56.595Z,7.47
2019-02-14T01:44:25.097Z,6.63
2019-02-14T01:46:53.610Z,7.30
2019-02-14T01:49:22.114Z,7.37
2019-02-14T01:51:50.654Z,6.43
2019-02-14T01:54:19.123Z,6.93
2019-02-14T01:56:47.678Z,6.80
2019-02-14T01:59:16.142Z,7.70
2019-02-14T02:01:44.644Z,7.97
2019-02-14T02:04:13.184Z,7.63
2019-02-14T02:06:41.744Z,7.77
2019-02-14T02:09:10.522Z,7.93
2019-02-14T02:11:39.098Z,7.47
2019-02-14T02:14:07.567Z,9.17
2019-02-14T02:16:36.111Z,7.37
2019-02-14T02:19:04.823Z,8.13
2019-02-14T02:21:52.663Z,8.90
2019-02-14T02:24:21.271Z,7.87
2019-02-14T02:26:49.731Z,8.43
2019-02-14T02:29:18.219Z,7.43
2019-02-14T02:31:46.760Z,7.50
2019-02-14T02:34:15.253Z,7.87
2019-02-14T02:36:43.805Z,7.90
2019-02-14T02:39:12.354Z,7.23
2019-02-14T02:41:41.074Z,7.10
2019-02-14T02:44:09.630Z,6.93
2019-02-14T02:46:38.095Z,7.13
2019-02-14T02:49:06.585Z,7.00
2019-02-14T02:51:35.076Z,7.33
2019-02-14T02:54:03.624Z,7.60
2019-02-14T02:56:32.191Z,7.13
2019-02-14T02:59:00.658Z,7.60
2019-02-14T03:01:29.142Z,7.57
2019-02-14T03:03:57.621Z,8.20
2019-02-14T03:06:26.259Z,7.27
2019-02-14T03:08:54.799Z,7.33
2019-02-14T03:11:23.362Z,7.90
2019-02-14T03:13:51.827Z,7.40
2019-02-14T03:16:20.343Z,7.67
2019-02-14T03:18:48.885Z,7.60
2019-02-14T03:21:17.422Z,7.70
2019-02-14T03:23:45.923Z,7.37
2019-02-14T03:26:14.419Z,7.70
2019-02-14T03:28:42.879Z,7.60
2019-02-14T03:31:11.357Z,7.93
2019-02-14T03:33:39.911Z,8.20
2019-02-14T03:36:08.379Z,8.67
2019-02-14T03:38:36.863Z,8.07
2019-02-14T03:41:05.502Z,7.77
2019-02-14T03:43:33.998Z,7.67
2019-02-14T03:46:02.538Z,9.03
2019-02-14T03:48:31.007Z,7.70
2019-02-14T03:50:59.574Z,7.77
2019-02-14T03:53:28.202Z,8.53
2019-02-14T03:55:56.661Z,7.77
2019-02-14T03:58:25.158Z,7.70
2019-02-14T04:00:53.707Z,7.37
2019-02-14T04:03:22.201Z,7.47
2019-02-14T04:05:50.740Z,8.10
2019-02-14T04:08:19.306Z,7.57
2019-02-14T04:10:47.842Z,7.67
2019-02-14T04:13:16.335Z,7.50
2019-02-14T04:15:44.941Z,7.60
2019-02-14T04:18:13.466Z,6.27
2019-02-14T04:20:41.963Z,7.60
2019-02-14T04:23:10.426Z,8.47
2019-02-14T04:25:38.912Z,7.20
2019-02-14T04:28:07.463Z,7.07
2019-02-14T04:30:36.030Z,6.77
2019-02-14T04:33:04.497Z,7.27
2019-02-14T04:35:33.000Z,7.60
2019-02-14T04:38:01.596Z,7.80
2019-02-14T04:40:33.653Z,7.07
2019-02-14T04:43:00.350Z,7.93
2019-02-14T04:45:28.830Z,7.43
2019-02-14T04:47:57.326Z,7.67
2019-02-14T04:50:25.799Z,7.43
2019-02-14T04:52:54.295Z,7.90
2019-02-14T04:55:22.763Z,7.70
2019-02-14T04:57:51.260Z,8.10
2019-02-14T05:00:19.791Z,8.27
2019-02-14T05:02:48.363Z,7.53
2019-02-14T05:05:16.835Z,8.07
2019-02-14T05:07:45.299Z,8.43
2019-02-14T05:10:13.959Z,8.00
2019-02-14T05:12:42.434Z,8.27
2019-02-14T05:15:11.471Z,8.43
2019-02-14T05:17:40.008Z,8.33
2019-02-14T05:20:13.093Z,8.73
2019-02-14T05:22:41.630Z,8.13
2019-02-14T05:25:10.568Z,7.40
2019-02-14T05:27:39.143Z,7.90
2019-02-14T05:30:10.803Z,8.10
2019-02-14T05:32:39.325Z,7.57
2019-02-14T05:35:08.703Z,8.00
2019-02-14T05:37:37.194Z,7.83
2019-02-14T05:40:10.834Z,7.57
2019-02-14T05:42:39.687Z,7.07
2019-02-14T05:45:11.188Z,7.43
2019-02-14T05:47:39.686Z,7.67
2019-02-14T05:50:12.016Z,7.80
2019-02-14T05:52:40.609Z,7.97
2019-02-14T05:55:11.027Z,7.77
2019-02-14T05:57:39.671Z,8.10
2019-02-14T06:00:14.571Z,7.13
2019-02-14T06:02:43.151Z,7.30
2019-02-14T06:05:11.830Z,7.07
2019-02-14T06:07:40.330Z,8.03
2019-02-14T06:10:12.235Z,7.63
2019-02-14T06:12:40.732Z,8.43
2019-02-14T06:15:11.411Z,9.13
2019-02-14T06:17:40.015Z,9.60
2019-02-14T06:20:13.110Z,9.20
2019-02-14T06:22:41.580Z,9.17
2019-02-14T06:25:11.508Z,10.77
2019-02-14T06:27:40.221Z,9.13
2019-02-14T06:30:29.651Z,9.67
2019-02-14T06:32:58.696Z,9.40
2019-02-14T06:35:27.271Z,9.80
2019-02-14T06:37:55.839Z,9.43
2019-02-14T06:40:24.422Z,9.20
2019-02-14T06:42:52.921Z,8.50
2019-02-14T06:45:21.538Z,8.90
2019-02-14T06:47:50.207Z,7.97
2019-02-14T06:50:18.766Z,8.43
2019-02-14T06:52:48.110Z,8.30
2019-02-14T06:55:16.587Z,8.47
2019-02-14T06:57:45.080Z,8.23
2019-02-14T07:00:15.510Z,7.87
2019-02-14T07:02:44.051Z,7.93
2019-02-14T07:05:12.690Z,7.87
2019-02-14T07:07:41.224Z,7.97
2019-02-14T07:10:11.238Z,9.40
2019-02-14T07:12:39.847Z,9.93
2019-02-14T07:15:11.426Z,8.93
2019-02-14T07:17:40.063Z,9.30
2019-02-14T07:20:11.302Z,8.80
2019-02-14T07:22:39.774Z,9.57
2019-02-14T07:25:10.777Z,8.87
2019-02-14T07:27:39.991Z,9.47
2019-02-14T07:30:20.454Z,8.67
2019-02-14T07:32:48.943Z,9.17
2019-02-14T07:35:17.416Z,10.53
2019-02-14T07:37:46.061Z,10.20
2019-02-14T07:40:15.078Z,9.13
2019-02-14T07:42:43.631Z,9.47
2019-02-14T07:45:17.346Z,10.23
2019-02-14T07:47:45.858Z,9.57
2019-02-14T07:50:14.667Z,10.33
2019-02-14T07:52:43.218Z,9.40
2019-02-14T07:55:12.839Z,8.73
2019-02-14T07:57:41.470Z,9.20
2019-02-14T08:00:15.145Z,8.20
2019-02-14T08:02:43.771Z,8.47
2019-02-14T08:05:12.312Z,10.10
2019-02-14T08:07:40.994Z,11.77
2019-02-14T08:10:12.471Z,11.47
2019-02-14T08:12:40.939Z,12.30
2019-02-14T08:15:11.879Z,11.27
2019-02-14T08:17:40.762Z,11.50
2019-02-14T08:20:11.574Z,10.47
2019-02-14T08:22:40.141Z,10.07
2019-02-14T08:25:10.783Z,10.17
2019-02-14T08:27:39.415Z,10.00
2019-02-14T08:30:11.138Z,10.20
2019-02-14T08:32:39.653Z,10.30
2019-02-14T08:35:09.213Z,11.13
2019-02-14T08:37:44.943Z,10.60
2019-02-14T08:40:25.822Z,9.77
2019-02-14T08:42:54.479Z,9.80
2019-02-14T08:45:22.943Z,9.07
2019-02-14T08:47:51.502Z,9.20
2019-02-14T08:50:19.984Z,8.37
2019-02-14T08:52:48.610Z,8.17
2019-02-14T08:55:17.222Z,8.00
2019-02-14T08:57:45.687Z,7.53
2019-02-14T09:00:15.727Z,7.27
2019-02-14T09:02:44.334Z,7.10
2019-02-14T09:05:13.120Z,6.50
2019-02-14T09:07:41.603Z,7.03
2019-02-14T09:10:14.740Z,6.80
2019-02-14T09:12:43.311Z,7.60
2019-02-14T09:15:14.018Z,7.47
2019-02-14T09:17:42.573Z,8.33
2019-02-14T09:20:16.399Z,8.25
2019-02-14T09:22:44.963Z,7.53
2019-02-14T09:25:13.605Z,7.95
2019-02-14T09:27:42.232Z,7.90
2019-02-14T09:30:12.443Z,8.43
2019-02-14T09:32:41.115Z,7.35
2019-02-14T09:35:10.328Z,7.53
2019-02-14T09:37:38.933Z,7.37
2019-02-14T09:40:13.044Z,7.92
2019-02-14T09:42:41.755Z,8.05
2019-02-14T09:45:14.125Z,9.10
2019-02-14T09:47:42.780Z,8.63
2019-02-14T09:50:15.258Z,8.77
2019-02-14T09:52:43.835Z,8.70
2019-02-14T09:55:14.186Z,8.13
2019-02-14T09:57:42.839Z,7.90
2019-02-14T10:00:16.920Z,7.70
2019-02-14T10:02:45.486Z,9.27
2019-02-14T10:05:14.998Z,9.20
2019-02-14T10:07:43.455Z,9.13
2019-02-14T10:10:14.562Z,9.17
2019-02-14T10:12:43.111Z,9.57
2019-02-14T10:15:12.251Z,9.53
2019-02-14T10:17:40.724Z,9.93
2019-02-14T10:20:12.237Z,9.50
2019-02-14T10:22:40.829Z,9.47
2019-02-14T10:25:09.963Z,9.77
2019-02-14T10:27:38.459Z,10.73
2019-02-14T10:30:12.827Z,10.93
2019-02-14T10:32:41.323Z,11.67
2019-02-14T10:35:10.003Z,12.00
2019-02-14T10:37:38.503Z,11.93
2019-02-14T10:40:12.343Z,11.35
2019-02-14T10:42:40.887Z,11.68
2019-02-14T10:45:14.994Z,12.10
2019-02-14T10:47:43.571Z,11.47
2019-02-14T10:50:12.179Z,11.87
2019-02-14T10:52:40.746Z,10.97
2019-02-14T10:55:16.088Z,12.33
2019-02-14T10:57:44.836Z,11.83
2019-02-14T11:00:23.887Z,11.97
2019-02-14T11:02:52.522Z,12.33
2019-02-14T11:05:21.363Z,12.40
2019-02-14T11:07:50.003Z,12.57
2019-02-14T11:10:18.543Z,11.60
2019-02-14T11:12:47.359Z,11.87
2019-02-14T11:15:18.467Z,11.20
2019-02-14T11:17:48.926Z,11.60
2019-02-14T11:20:17.994Z,11.93
2019-02-14T11:22:48.860Z,12.50
2019-02-14T11:25:28.599Z,14.20
2019-02-14T11:27:57.148Z,13.07
2019-02-14T11:30:25.726Z,12.30
2019-02-14T11:32:54.276Z,13.27
2019-02-14T11:35:23.026Z,13.03
2019-02-14T11:37:51.499Z,12.37
2019-02-14T11:40:20.072Z,14.03
2019-02-14T11:42:48.644Z,12.90
2019-02-14T11:45:22.011Z,13.07
2019-02-14T11:47:50.546Z,13.03
2019-02-14T11:50:19.050Z,12.10
2019-02-14T11:52:47.522Z,12.47
2019-02-14T11:55:16.131Z,12.63
2019-02-14T11:57:44.631Z,13.10
2019-02-14T12:00:20.155Z,12.83
2019-02-14T12:02:55.087Z,11.80
2019-02-14T12:05:19.051Z,11.70
2019-02-14T12:07:47.749Z,12.03
2019-02-14T12:10:16.287Z,12.33
2019-02-14T12:12:44.779Z,12.13
2019-02-14T12:15:14.184Z,11.87
2019-02-14T12:17:42.747Z,11.87
2019-02-14T12:20:15.767Z,11.13
2019-02-14T12:22:46.643Z,13.40
2019-02-14T12:25:26.783Z,12.20
2019-02-14T12:27:55.327Z,12.43
2019-02-14T12:30:23.882Z,13.00
2019-02-14T12:32:52.363Z,12.60
2019-02-14T12:35:20.946Z,14.00
2019-02-14T12:37:49.490Z,13.37
2019-02-14T12:40:18.063Z,13.80
2019-02-14T12:42:47.364Z,14.33
2019-02-14T12:45:26.109Z,13.70
2019-02-14T12:47:54.177Z,12.73
2019-02-14T12:50:22.778Z,12.57
2019-02-14T12:52:51.426Z,12.80
2019-02-14T12:55:19.971Z,11.97
2019-02-14T12:57:48.534Z,13.13
2019-02-14T13:00:19.643Z,13.53
2019-02-14T13:02:48.300Z,14.17
2019-02-14T13:05:16.844Z,14.87
2019-02-14T13:07:45.319Z,14.07
2019-02-14T13:10:16.155Z,15.10
2019-02-14T13:12:44.718Z,15.00
2019-02-14T13:15:21.947Z,14.30
2019-02-14T13:17:50.446Z,15.63
2019-02-14T13:20:19.000Z,15.70
2019-02-14T13:22:47.650Z,14.53
2019-02-14T13:25:16.469Z,14.53
2019-02-14T13:27:45.075Z,14.63
2019-02-14T13:30:26.575Z,14.97
2019-02-14T13:32:55.228Z,14.97
2019-02-14T13:35:23.766Z,14.83
2019-02-14T13:37:52.249Z,15.37
2019-02-14T13:40:20.887Z,15.27
2019-02-14T13:42:49.372Z,14.03
2019-02-14T13:45:23.069Z,15.53
2019-02-14T13:47:51.651Z,16.83
2019-02-14T13:50:20.213Z,17.20
2019-02-14T13:52:48.751Z,16.90
2019-02-14T13:55:17.239Z,15.90
2019-02-14T13:57:45.883Z,15.87
2019-02-14T14:00:22.975Z,16.23
2019-02-14T14:02:51.443Z,16.10
2019-02-14T14:05:20.025Z,15.87
2019-02-14T14:07:48.564Z,16.67
2019-02-14T14:10:17.219Z,15.97
2019-02-14T14:12:45.688Z,16.30
2019-02-14T14:15:14.303Z,15.73
2019-02-14T14:17:42.950Z,17.10
2019-02-14T14:20:11.497Z,17.13
2019-02-14T14:22:40.060Z,16.80
2019-02-14T14:25:10.540Z,17.90
2019-02-14T14:27:39.099Z,17.30
2019-02-14T14:30:10.779Z,18.07
2019-02-14T14:32:39.393Z,18.70
2019-02-14T14:35:11.046Z,20.07
2019-02-14T14:37:40.278Z,21.33
2019-02-14T14:40:11.403Z,21.47
2019-02-14T14:42:53.342Z,20.40
2019-02-14T14:45:35.322Z,18.17
2019-02-14T14:48:03.936Z,17.43
2019-02-14T14:50:32.515Z,17.03
2019-02-14T14:53:01.107Z,18.13
2019-02-14T14:55:29.662Z,17.53
2019-02-14T14:57:58.159Z,17.40
2019-02-14T15:00:26.649Z,17.43
2019-02-14T15:02:55.211Z,16.10
2019-02-14T15:05:23.716Z,16.43
2019-02-14T15:07:52.256Z,15.80
2019-02-14T15:10:20.896Z,16.37
2019-02-14T15:12:49.458Z,15.37
2019-02-14T15:15:17.927Z,15.50
2019-02-14T15:17:46.495Z,15.37
2019-02-14T15:20:15.031Z,19.20
2019-02-14T15:22:43.525Z,14.73
2019-02-14T15:25:12.139Z,15.03
2019-02-14T15:27:40.704Z,16.17
2019-02-14T15:30:09.319Z,14.90
2019-02-14T15:32:37.911Z,13.67
2019-02-14T15:35:08.419Z,15.00
2019-02-14T15:37:36.960Z,13.83
2019-02-14T15:40:09.555Z,13.87
2019-02-14T15:42:37.903Z,14.60
2019-02-14T15:45:07.574Z,16.20
2019-02-14T15:47:36.086Z,16.30
2019-02-14T15:50:08.991Z,18.07
2019-02-14T15:52:37.251Z,15.80
2019-02-14T15:55:07.191Z,16.07
2019-02-14T15:57:35.745Z,15.97
2019-02-14T16:00:07.919Z,15.97
2019-02-14T16:02:36.533Z,19.93
2019-02-14T16:05:06.230Z,17.70
2019-02-14T16:07:34.706Z,16.83
2019-02-14T16:10:05.822Z,16.03
2019-02-14T16:12:34.699Z,15.90
2019-02-14T16:15:04.418Z,15.87
2019-02-14T16:17:35.416Z,16.20
2019-02-14T16:20:05.301Z,15.70
2019-02-14T16:22:33.940Z,16.00
2019-02-14T16:25:03.019Z,15.13
2019-02-14T16:27:32.689Z,16.47
2019-02-14T16:30:01.269Z,17.10
2019-02-14T16:32:29.804Z,17.17
2019-02-14T16:34:58.365Z,17.87
2019-02-14T16:37:26.900Z,15.30
2019-02-14T16:39:56.874Z,15.00
2019-02-14T16:42:25.623Z,15.40
2019-02-14T16:44:54.167Z,14.40
2019-02-14T16:47:22.843Z,14.93
2019-02-14T16:50:01.473Z,15.73
2019-02-14T16:52:30.086Z,15.47
2019-02-14T16:54:58.559Z,16.43
2019-02-14T16:57:27.131Z,14.93
2019-02-14T16:59:55.598Z,16.47
2019-02-14T17:02:24.211Z,17.33
2019-02-14T17:04:52.702Z,16.27
2019-02-14T17:07:21.190Z,17.07
2019-02-14T17:09:50.655Z,16.63
2019-02-14T17:12:19.148Z,17.63
2019-02-14T17:14:48.643Z,16.73
2019-02-14T17:17:17.107Z,17.80
2019-02-14T17:19:45.599Z,18.63
2019-02-14T17:22:14.135Z,19.73
2019-02-14T17:24:42.623Z,30.00
2019-02-14T17:27:11.086Z,21.23
2019-02-14T17:29:39.674Z,21.23
2019-02-14T17:32:08.163Z,23.00
2019-02-14T17:34:36.752Z,21.70
2019-02-14T17:37:05.393Z,21.43
2019-02-14T17:39:33.959Z,19.70
2019-02-14T17:42:02.503Z,19.53
2019-02-14T17:44:30.969Z,18.90
2019-02-14T17:46:59.558Z,18.47
2019-02-14T17:49:28.054Z,18.13
2019-02-14T17:51:56.606Z,18.83
2019-02-14T17:54:25.141Z,19.43
2019-02-14T17:56:53.702Z,19.47
2019-02-14T17:59:22.306Z,18.97
2019-02-14T18:01:50.778Z,18.63
2019-02-14T18:04:19.267Z,18.37
2019-02-14T18:06:47.832Z,18.00
2019-02-14T18:09:16.304Z,18.33
2019-02-14T18:11:44.871Z,17.77
2019-02-14T18:14:13.442Z,18.97
2019-02-14T18:16:42.018Z,17.10
2019-02-14T18:19:10.552Z,18.10
2019-02-14T18:21:39.064Z,17.90
2019-02-14T18:24:07.606Z,17.53
2019-02-14T18:26:36.275Z,17.03
2019-02-14T18:29:25.675Z,16.80
2019-02-14T18:31:54.243Z,17.37
2019-02-14T18:34:22.752Z,17.53
2019-02-14T18:36:51.223Z,18.17
2019-02-14T18:39:19.685Z,17.80
2019-02-14T18:41:48.272Z,18.60
2019-02-14T18:44:16.783Z,18.80
2019-02-14T18:46:45.427Z,18.60
2019-02-14T18:49:13.963Z,18.57
2019-02-14T18:51:42.864Z,18.13
2019-02-14T18:54:11.362Z,17.73
2019-02-14T18:56:39.902Z,17.73
2019-02-14T18:59:08.446Z,17.17
2019-02-14T19:01:36.938Z,17.53
2019-02-14T19:04:05.480Z,17.50
2019-02-14T19:06:33.971Z,15.43
2019-02-14T19:09:02.438Z,15.60
2019-02-14T19:11:30.920Z,15.57
2019-02-14T19:13:59.473Z,15.03
2019-02-14T19:16:27.953Z,16.17
2019-02-14T19:18:58.649Z,15.40
2019-02-14T19:21:26.707Z,16.00
2019-02-14T19:23:55.195Z,16.13
2019-02-14T19:26:23.730Z,15.33
2019-02-14T19:28:52.235Z,14.63
2019-02-14T19:31:20.701Z,14.87
2019-02-14T19:33:49.242Z,14.50
2019-02-14T19:36:17.799Z,14.33
2019-02-14T19:38:46.297Z,14.53
2019-02-14T19:41:24.898Z,15.13
2019-02-14T19:43:45.021Z,14.63
2019-02-14T19:46:13.662Z,14.40
2019-02-14T19:48:42.259Z,14.33
2019-02-14T19:51:10.761Z,14.23
2019-02-14T19:53:39.226Z,14.57
2019-02-14T19:56:07.858Z,13.77
2019-02-14T19:58:36.357Z,16.97
2019-02-14T20:01:05.428Z,15.87
2019-02-14T20:03:33.995Z,15.73
2019-02-14T20:06:02.463Z,14.10
2019-02-14T20:08:31.059Z,14.77
2019-02-14T20:10:59.600Z,14.13
2019-02-14T20:13:28.163Z,14.53
2019-02-14T20:15:56.771Z,14.33
2019-02-14T20:18:25.262Z,14.33
2019-02-14T20:20:53.867Z,14.53
2019-02-14T20:23:22.359Z,15.93
2019-02-14T20:25:50.863Z,16.00
2019-02-14T20:28:19.330Z,14.47
2019-02-14T20:30:47.947Z,15.23
2019-02-14T20:33:16.456Z,14.63
2019-02-14T20:35:44.992Z,15.53
2019-02-14T20:38:13.465Z,14.97
2019-02-14T20:40:42.325Z,15.67
2019-02-14T20:43:10.851Z,15.03
2019-02-14T20:45:39.413Z,15.63
2019-02-14T20:48:08.058Z,15.33
2019-02-14T20:50:36.594Z,14.70
2019-02-14T20:53:05.093Z,15.27
2019-02-14T20:55:33.627Z,15.03
2019-02-14T20:58:02.121Z,13.80
2019-02-14T21:00:35.366Z,15.47
2019-02-14T21:03:03.858Z,14.63
2019-02-14T21:05:32.404Z,17.03
2019-02-14T21:08:00.942Z,14.33
2019-02-14T21:10:29.499Z,14.83
2019-02-14T21:12:57.977Z,14.07
2019-02-14T21:15:26.821Z,14.43
2019-02-14T21:17:55.383Z,15.00
2019-02-14T21:20:23.922Z,14.50
2019-02-14T21:22:52.498Z,15.57
2019-02-14T21:25:23.399Z,15.37
2019-02-14T21:27:51.391Z,14.80
2019-02-14T21:30:22.571Z,15.30
2019-02-14T21:32:51.871Z,16.97
2019-02-14T21:35:20.492Z,16.33
2019-02-14T21:37:49.028Z,16.03
2019-02-14T21:40:19.037Z,16.20
2019-02-14T21:42:47.614Z,16.47
2019-02-14T21:45:17.281Z,17.27
2019-02-14T21:47:45.913Z,17.87
2019-02-14T21:50:15.663Z,17.00
2019-02-14T21:52:44.237Z,16.60
2019-02-14T21:55:13.836Z,16.20
2019-02-14T21:57:42.807Z,15.90
2019-02-14T22:00:22.478Z,16.00
2019-02-14T22:02:51.043Z,15.87
2019-02-14T22:05:24.655Z,14.73
2019-02-14T22:07:49.819Z,15.07
2019-02-14T22:10:18.298Z,14.40
2019-02-14T22:12:46.840Z,14.90
2019-02-14T22:15:20.712Z,14.60
2019-02-14T22:17:49.309Z,14.40
2019-02-14T22:20:17.838Z,14.60
2019-02-14T22:22:46.404Z,13.77
2019-02-14T22:25:14.968Z,14.20
2019-02-14T22:27:43.499Z,13.07
2019-02-14T22:30:16.287Z,13.53
2019-02-14T22:32:45.687Z,13.37
2019-02-14T22:35:14.462Z,14.37
2019-02-14T22:37:42.958Z,12.63
2019-02-14T22:40:12.567Z,12.23
2019-02-14T22:42:47.290Z,12.70
2019-02-14T22:45:13.882Z,13.43
2019-02-14T22:47:43.659Z,12.33
2019-02-14T22:50:13.045Z,12.73
2019-02-14T22:52:41.715Z,12.67
2019-02-14T22:55:11.550Z,13.07
2019-02-14T22:57:40.108Z,12.93
2019-02-14T23:00:14.387Z,11.83
2019-02-14T23:02:42.967Z,12.10
2019-02-14T23:05:11.605Z,12.23
2019-02-14T23:07:40.138Z,12.93
2019-02-14T23:10:08.772Z,12.30
2019-02-14T23:12:37.243Z,12.23
2019-02-14T23:15:07.550Z,12.60
2019-02-14T23:17:36.019Z,12.53
2019-02-14T23:20:05.954Z,12.83
2019-02-14T23:22:34.563Z,12.27
2019-02-14T23:25:03.197Z,13.23
2019-02-14T23:27:47.249Z,12.57
2019-02-14T23:30:15.986Z,13.20
2019-02-14T23:32:44.451Z,12.50
2019-02-14T23:35:13.103Z,16.30
2019-02-14T23:37:41.795Z,13.87
2019-02-14T23:40:10.354Z,13.20
2019-02-14T23:42:38.891Z,12.83
2019-02-14T23:45:09.433Z,12.90
2019-02-14T23:47:37.992Z,11.80
2019-02-14T23:50:08.730Z,11.40
2019-02-14T23:52:37.219Z,12.27
2019-02-14T23:55:07.446Z,11.23
2019-02-14T23:57:35.909Z,10.00
